• Join FlightAware (Why Join?)
  • Login
  • US Flag 
05:10AM EDT


 

Airport Tracker/Info


-or-


 

Live Flight TrackerFlight Track Log ✈ GJS3618 ✈ 23-Jun-2013 ✈ KORD - KBZN

Flight Track Log - Related Links

Times and Time Zones

All times are in EDT time to prevent confusion due to time zone crossing. See the GJS3618 flight status page for this flight to view local times or setup timezone preferences in your user account.

Time Position Orientation Groundspeed Altitude Reporting Facility
EDT Latitude Longitude Course Direction KTS MPH feet Rate Location/Type
11:46PM 41.9689 -87.9494 269° West 174 200 38,000  Level Chicago Center
11:47PM 41.9681 -88.0189 269° West 208 239 3,300 -16,140 Descending Chicago Center
11:48PM 41.9647 -88.1081 267° West 227 261 5,300 2,220 Climbing Chicago Center
11:49PM 41.9572 -88.2075 264° West 261 300 7,900 2,520 Climbing Chicago Center
11:50PM 41.9464 -88.3294 263° West 275 316 10,500 1,860 Climbing Chicago Center
11:51PM 41.9419 -88.4436 267° West 303 349 11,700 1,320 Climbing Chicago Center
11:52PM 41.9583 -88.5717 280° West 350 403 13,300 1,620 Climbing Chicago Center
11:53PM 41.9767 -88.7042 281° West 362 417 15,100 1,860 Climbing Chicago Center
11:54PM 41.9928 -88.8397 279° West 371 427 17,100 1,800 Climbing Chicago Center
11:55PM 42.0086 -88.9725 279° West 365 420 18,800 1,440 Climbing Chicago Center
11:56PM 42.0233 -89.1119 278° West 374 430 20,100 1,140 Climbing Chicago Center
11:57PM 42.0428 -89.2564 280° West 397 457 21,200 1,380 Climbing Chicago Center
11:58PM 42.0667 -89.4347 280° West 406 467 23,000 1,320 Climbing Chicago Center
11:59PM 42.0861 -89.5717 281° West 410 472 24,000 1,020 Climbing Chicago Center
12:00AM 42.1114 -89.7275 282° West 421 484 25,100 1,080 Climbing Chicago Center
12:01AM 42.1358 -89.8833 282° West 425 489 26,300 1,080 Climbing Chicago Center
12:02AM 42.1631 -90.0336 284° West 429 494 27,400 1,080 Climbing Chicago Center
12:03AM 42.2122 -90.2111 291° West 426 490 28,500 780 Climbing Chicago Center
12:04AM 42.2556 -90.3631 291° West 435 501 29,100 660 Climbing Chicago Center
12:05AM 42.2483 -90.5264 267° West 441 507 29,900 720 Climbing Chicago Center
12:06AM 42.2367 -90.6908 265° West 442 509 30,600 660 Climbing Chicago Center
12:07AM 42.2261 -90.8558 265° West 444 511 31,300 660 Climbing Chicago Center
12:08AM 42.2144 -91.0208 265° West 444 511 32,000 660 Climbing Chicago Center
12:09AM 42.2144 -91.1858 270° West 442 509 32,700 780 Climbing Chicago Center
12:10AM 42.2589 -91.3419 291° West 446 513 33,700 600 Climbing Chicago Center
12:11AM 42.3033 -91.4936 292° West 437 503 34,000 300 Climbing Chicago Center
12:12AM 42.3475 -91.6433 292° West 431 496 34,400 600 Climbing Chicago Center
12:13AM 42.3914 -91.7925 292° West 428 493 35,300 720 Climbing Chicago Center
12:14AM 42.4333 -91.9389 291° West 419 482 35,900 300 Climbing Chicago Center
12:15AM 42.4842 -92.1169 291° West 422 486 36,000  Climbing Chicago Center
12:16AM 42.5278 -92.2636 292° West 422 486 36,000  Level Chicago Center
12:17AM 42.5686 -92.4106 291° West 419 482 36,000  Level Chicago Center
12:18AM 42.6089 -92.5550 291° West 413 475 36,000  Level Chicago Center
12:19AM 42.6489 -92.6997 291° West 412 474 36,000  Level Chicago Center
12:20AM 42.6911 -92.8469 291° West 416 479 36,000  Level Chicago Center
12:21AM 42.7336 -92.9936 292° West 420 483 36,000  Level Chicago Center
12:22AM 42.7739 -93.1397 291° West 417 480 36,000  Level Chicago Center
12:23AM 42.8042 -93.2589 289° West 419 482 36,000  Level Minneapolis Center
12:24AM 42.8453 -93.4078 291° West 422 486 36,000  Level Minneapolis Center
12:25AM 42.8886 -93.5561 292° West 423 487 36,000  Level Minneapolis Center
12:26AM 42.9281 -93.7053 290° West 422 486 36,000  Level Minneapolis Center
12:27AM 42.9689 -93.8556 290° West 426 490 36,000  Level Minneapolis Center
12:28AM 43.0094 -94.0047 290° West 423 487 36,000  Level Minneapolis Center
12:29AM 43.0456 -94.1539 288° West 419 482 36,000  Level Minneapolis Center
12:30AM 43.0886 -94.3208 290° West 423 487 36,000  Level Minneapolis Center
12:31AM 43.1297 -94.4689 291° West 418 481 36,000  Level Minneapolis Center
12:32AM 43.1706 -94.6189 291° West 421 484 36,000  Level Minneapolis Center
12:33AM 43.2100 -94.7683 290° West 418 481 36,000  Level Minneapolis Center
12:34AM 43.2489 -94.9189 290° West 420 483 36,000  Level Minneapolis Center
12:35AM 43.2872 -95.0719 289° West 424 488 36,000  Level Minneapolis Center
12:36AM 43.3261 -95.2225 290° West 421 484 36,000  Level Minneapolis Center
12:37AM 43.3636 -95.3717 289° West 415 478 36,000  Level Minneapolis Center
12:38AM 43.4017 -95.5233 289° West 418 481 36,000  Level Minneapolis Center
12:39AM 43.4392 -95.6739 289° West 417 480 36,000  Level Minneapolis Center
12:40AM 43.4761 -95.8236 289° West 415 478 36,000  Level Minneapolis Center
12:41AM 43.5136 -95.9758 289° West 417 480 36,000  Level Minneapolis Center
12:42AM 43.5506 -96.1258 289° West 414 476 36,000  Level Minneapolis Center
12:43AM 43.5872 -96.2772 289° West 415 478 36,000  Level Minneapolis Center
12:44AM 43.6239 -96.4292 288° West 415 478 36,000  Level Minneapolis Center
12:45AM 43.6675 -96.6125 288° West 416 479 36,000  Level Minneapolis Center
12:46AM 43.7039 -96.7633 289° West 414 476 36,000  Level Minneapolis Center
12:47AM 43.7394 -96.9142 288° West 411 473 36,000  Level Minneapolis Center
12:48AM 43.7747 -97.0653 288° West 411 473 36,000  Level Minneapolis Center
12:49AM 43.8092 -97.2167 288° West 412 474 36,000  Level Minneapolis Center
12:50AM 43.8442 -97.3678 288° West 412 474 36,000  Level Minneapolis Center
12:51AM 43.8789 -97.5164 288° West 408 470 36,000  Level Minneapolis Center
12:52AM 43.9131 -97.6661 288° West 407 468 36,000  Level Minneapolis Center
12:53AM 43.9469 -97.8150 288° West 407 468 36,000  Level Minneapolis Center
12:54AM 43.9800 -97.9644 287° West 405 466 36,000  Level Minneapolis Center
12:55AM 44.0153 -98.1133 288° West 407 468 36,000  Level Minneapolis Center
12:56AM 44.0472 -98.2611 287° West 401 461 36,000  Level Minneapolis Center
12:57AM 44.0803 -98.4081 287° West 399 459 36,000  Level Minneapolis Center
12:58AM 44.1125 -98.5567 287° West 401 461 36,000  Level Minneapolis Center
12:59AM 44.1447 -98.7008 287° West 394 453 36,000  Level Minneapolis Center
01:00AM 44.1739 -98.8450 286° West 395 455 36,000  Level Minneapolis Center
01:01AM 44.2067 -98.9908 287° West 395 455 36,000  Level Minneapolis Center
01:02AM 44.2381 -99.1356 287° West 390 449 36,000  Level Minneapolis Center
01:03AM 44.2689 -99.2814 286° West 391 450 36,000  Level Minneapolis Center
01:04AM 44.2997 -99.4250 287° West 387 445 36,000  Level Minneapolis Center
01:05AM 44.3292 -99.5728 286° West 389 448 36,000  Level Minneapolis Center
01:06AM 44.3592 -99.7208 286° West 392 451 36,000  Level Minneapolis Center
01:07AM 44.3897 -99.8686 286° West 394 453 36,000  Level Minneapolis Center
01:08AM 44.4194 -100.0161 286° West 394 453 36,000  Level Minneapolis Center
01:09AM 44.4492 -100.1625 286° West 391 450 36,000  Level Minneapolis Center
01:10AM 44.4783 -100.3094 286° West 391 450 36,000  Level Minneapolis Center
01:11AM 44.5081 -100.4561 286° West 389 448 36,000  Level Minneapolis Center
01:12AM 44.5364 -100.6031 285° West 389 448 36,000  Level Minneapolis Center
01:13AM 44.5656 -100.7503 286° West 390 449 36,000  Level Minneapolis Center
01:14AM 44.5908 -100.8975 284° West 389 448 36,000  Level Minneapolis Center
01:15AM 44.6147 -101.0472 283° West 390 449 36,000  Level Minneapolis Center
01:16AM 44.6392 -101.1972 283° West 392 451 36,000  Level Minneapolis Center
01:17AM 44.6639 -101.3467 283° West 393 452 36,000  Level Minneapolis Center
01:18AM 44.6897 -101.4994 283° West 397 457 36,000  Level Minneapolis Center
01:19AM 44.7133 -101.6489 283° West 395 455 36,000  Level Minneapolis Center
01:20AM 44.7369 -101.8000 282° West 395 455 36,000  Level Minneapolis Center
01:21AM 44.7606 -101.9514 282° West 396 456 36,000  Level Minneapolis Center
01:22AM 44.7831 -102.1042 282° West 397 457 36,000  Level Minneapolis Center
01:23AM 44.8050 -102.2569 281° West 401 461 36,000  Level Denver Center
01:24AM 44.8283 -102.4119 282° West 403 464 36,000  Level Denver Center
01:26AM 44.8511 -102.5656 282° West 401 461 36,000  Level Denver Center
01:27AM 44.8797 -102.7511 282° West 403 464 36,000  Level Denver Center
01:28AM 44.9061 -102.9394 281° West 407 468 36,000  Level Denver Center
01:29AM 44.9292 -103.0961 282° West 408 470 36,000  Level Minneapolis Center
01:30AM 44.9458 -103.2153 281° West 409 471 36,000  Level Salt Lake Center
01:31AM 44.9669 -103.3650 281° West 409 471 36,000  Level Salt Lake Center
01:32AM 44.9917 -103.5419 281° West 411 473 36,000  Level Salt Lake Center
01:33AM 45.0125 -103.6917 281° West 410 472 36,000  Level Salt Lake Center
01:34AM 45.0406 -103.8997 281° West 411 473 36,000  Level Denver Center
01:35AM 45.0608 -104.0514 281° West 411 473 36,000  Level Denver Center
01:36AM 45.0772 -104.1733 281° West 412 474 36,000  Level Salt Lake Center
01:37AM 45.1003 -104.3525 280° West 413 475 36,000  Level Salt Lake Center
01:38AM 45.1208 -104.5069 281° West 416 479 36,000  Level Salt Lake Center
01:39AM 45.1411 -104.6614 281° West 417 480 36,000  Level Salt Lake Center
01:40AM 45.1625 -104.8400 280° West 415 478 36,000  Level Salt Lake Center
01:41AM 45.1831 -104.9958 281° West 417 480 36,000  Level Salt Lake Center
01:42AM 45.2019 -105.1525 280° West 420 483 36,000  Level Salt Lake Center
01:43AM 45.2244 -105.3328 280° West 418 481 36,000  Level Salt Lake Center
01:44AM 45.2428 -105.4897 279° West 420 483 36,000  Level Salt Lake Center
01:45AM 45.2614 -105.6469 280° West 422 486 36,000 -60 Level Salt Lake Center
01:46AM 45.2806 -105.8078 280° West 422 486 35,900  Descending Salt Lake Center
01:47AM 45.2994 -105.9717 279° West 420 483 36,000  Climbing Salt Lake Center
01:48AM 45.3183 -106.1347 279° West 420 483 36,000  Level Salt Lake Center
01:49AM 45.3367 -106.2936 279° West 414 476 36,000  Level Salt Lake Center
01:50AM 45.3581 -106.4869 279° West 413 475 36,000  Level Salt Lake Center
01:51AM 45.3758 -106.6464 279° West 411 473 36,000  Level Salt Lake Center
01:52AM 45.3931 -106.8058 279° West 409 471 36,000  Level Salt Lake Center
01:53AM 45.4103 -106.9658 279° West 409 471 36,000  Level Salt Lake Center
01:54AM 45.4264 -107.1256 278° West 409 471 36,000  Level Salt Lake Center
01:55AM 45.4433 -107.2936 278° West 407 468 36,000  Level Salt Lake Center
01:56AM 45.4603 -107.4528 279° West 411 473 36,000  Level Salt Lake Center
01:57AM 45.4761 -107.6125 278° West 413 475 36,000 -540 Level Salt Lake Center
01:58AM 45.4939 -107.7856 278° West 417 480 35,000 -1,260 Descending Salt Lake Center
01:59AM 45.5097 -107.9464 278° West 414 476 33,500 -1,500 Descending Salt Lake Center
02:00AM 45.5253 -108.1064 278° West 412 474 32,000 -1,500 Descending Salt Lake Center
02:01AM 45.5403 -108.2678 278° West 415 478 30,500 -1,560 Descending Salt Lake Center
02:02AM 45.5567 -108.4492 277° West 426 490 28,900 -1,560 Descending Salt Lake Center
02:03AM 45.5728 -108.6183 278° West 434 499 27,400 -1,500 Descending Salt Lake Center
02:04AM 45.5889 -108.7842 278° West 426 490 25,900 -1,500 Descending Salt Lake Center
02:05AM 45.6031 -108.9447 277° West 414 476 24,400 -1,560 Descending Salt Lake Center
02:06AM 45.6183 -109.1136 277° West 401 461 22,800 -1,560 Descending Salt Lake Center
02:07AM 45.6317 -109.2664 277° West 392 451 21,300 -1,500 Descending Salt Lake Center
02:08AM 45.6442 -109.4186 277° West 391 450 19,800 -1,500 Descending Salt Lake Center
02:09AM 45.6567 -109.5694 277° West 388 447 18,300 -1,440 Descending Salt Lake Center
02:10AM 45.6708 -109.7319 277° West 386 444 16,900 -1,440 Descending Salt Lake Center
02:11AM 45.6844 -109.8828 277° West 378 435 15,400 -1,440 Descending Salt Lake Center
02:12AM 45.6939 -110.0131 276° West 364 419 14,000 -1,380 Descending Salt Lake Center
02:13AM 45.7019 -110.1381 275° West 348 400 12,600 -1,020 Descending Salt Lake Center
02:14AM 45.7133 -110.2900 276° West 343 395 12,000 -300 Descending Salt Lake Center
02:15AM 45.7236 -110.4247 276° West 348 400 12,100  Climbing Salt Lake Center
02:16AM 45.7342 -110.5583 277° West 351 404 12,100 -60 Level Salt Lake Center
02:17AM 45.7467 -110.7036 277° West 351 404 12,000 -60 Descending Salt Lake Center
02:18AM 45.7558 -110.8389 276° West 339 390 12,000 -180 Level Salt Lake Center
02:19AM 45.7794 -110.9503 287° West 300 345 11,700 -900 Descending Salt Lake Center
02:20AM 45.8264 -111.0361 308° West 285 328 10,200 -1,440 Descending Salt Lake Center
02:21AM 45.8756 -111.1133 312° West 275 316 8,900 -1,200 Descending Salt Lake Center
02:22AM 45.9072 -111.1836 303° West 241 277 7,800 -1,320 Descending Salt Lake Center
02:23AM 45.8794 -111.2469 238° Southwest 207 238 6,300 -1,080 Descending Salt Lake Center
02:24AM 45.8356 -111.2342 169° South 165 190 5,700 -660 Descending Salt Lake Center
02:25AM 45.8056 -111.1919 136° Southeast 156 180 5,000 -600 Descending Salt Lake Center
02:26AM 45.7819 -111.1589 136° Southeast 154 177 4,500 -540 Descending Salt Lake Center